Time;durP1;ratioP1;P1;durP2;ratioP2;P2;SDS_P1;SDS_P2;PMS_P1;PMS_P2;Temp;Humidity;BMP_temperature;BMP_pressure;BME280_temperature;BME280_humidity;BME280_pressure;Samples;Min_cycle;Max_cycle;Signal;HPM_P1;HPM_P2
2020/12/19 00:01:54;;;;;;;18.98;1.55;;;;;;;;;;6132213;23;20496;-46
2020/12/19 00:04:21;;;;;;;10.98;1.73;;;;;;;;;;6131221;23;20381;-40
2020/12/19 00:06:48;;;;;;;25.42;2.10;;;;;;;;;;6131257;23;20002;-39
2020/12/19 00:09:15;;;;;;;16.77;2.22;;;;;;;;;;6130653;23;20081;-41
2020/12/19 00:11:43;;;;;;;29.85;2.45;;;;;;;;;;6128734;23;20009;-39
2020/12/19 00:14:10;;;;;;;17.60;1.85;;;;;;;;;;6124218;23;20085;-40
2020/12/19 00:16:37;;;;;;;14.43;1.52;;;;;;;;;;6125225;23;20085;-39
2020/12/19 00:19:05;;;;;;;14.52;1.30;;;;;;;;;;6125163;23;19998;-37
2020/12/19 00:21:33;;;;;;;17.40;1.40;;;;;;;;;;6124635;23;20018;-38
2020/12/19 00:24:01;;;;;;;7.25;1.20;;;;;;;;;;6109213;23;20010;-38
2020/12/19 00:26:35;;;;;;;6.28;1.15;;;;;;;;;;6095739;23;20025;-38
2020/12/19 00:29:03;;;;;;;13.70;1.10;;;;;;;;;;6096162;23;20033;-37
2020/12/19 00:31:30;;;;;;;8.48;1.50;;;;;;;;;;6095654;23;20018;-37
2020/12/19 00:33:58;;;;;;;4.88;1.15;;;;;;;;;;6095600;23;20006;-40
2020/12/19 00:36:25;;;;;;;7.32;0.85;;;;;;;;;;6095439;23;20387;-37
2020/12/19 00:38:52;;;;;;;7.10;0.95;;;;;;;;;;6095879;23;20376;-38
2020/12/19 00:41:23;;;;;;;5.70;1.17;;;;;;;;;;6096085;23;20327;-42
2020/12/19 00:43:50;;;;;;;4.55;1.10;;;;;;;;;;6095196;23;20010;-38
2020/12/19 00:46:21;;;;;;;4.88;1.00;;;;;;;;;;6095824;23;20009;-38
2020/12/19 00:48:48;;;;;;;11.25;1.40;;;;;;;;;;6070399;23;20011;-39
2020/12/19 00:51:19;;;;;;;4.15;1.20;;;;;;;;;;6093785;23;20101;-39
2020/12/19 00:53:47;;;;;;;4.85;1.45;;;;;;;;;;6093744;23;20371;-38
2020/12/19 00:56:24;;;;;;;8.02;1.20;;;;;;;;;;6093479;23;20065;-39
2020/12/19 00:58:52;;;;;;;5.05;1.00;;;;;;;;;;6093501;23;20054;-38
2020/12/19 01:01:20;;;;;;;5.63;1.10;;;;;;;;;;6093831;23;20006;-39
2020/12/19 01:03:47;;;;;;;4.70;0.85;;;;;;;;;;6094410;23;20030;-39
2020/12/19 01:06:18;;;;;;;4.90;0.90;;;;;;;;;;6095533;23;20073;-39
2020/12/19 01:08:45;;;;;;;1.50;0.70;;;;;;;;;;6096056;23;20003;-39
2020/12/19 01:11:16;;;;;;;2.30;1.45;;;;;;;;;;6095270;23;20029;-38
2020/12/19 01:13:43;;;;;;;4.43;1.52;;;;;;;;;;6095244;23;20006;-40
2020/12/19 01:16:15;;;;;;;12.30;2.30;;;;;;;;;;6095134;23;20058;-40
2020/12/19 01:18:43;;;;;;;7.85;1.45;;;;;;;;;;6095003;23;20007;-40
2020/12/19 01:21:13;;;;;;;5.60;1.35;;;;;;;;;;6094778;23;20011;-40
2020/12/19 01:23:41;;;;;;;3.08;1.02;;;;;;;;;;6094009;23;20086;-38
2020/12/19 01:26:08;;;;;;;3.03;1.10;;;;;;;;;;6094892;23;20021;-38
2020/12/19 01:28:35;;;;;;;2.17;1.20;;;;;;;;;;6094632;23;20490;-38
2020/12/19 01:31:07;;;;;;;3.95;1.48;;;;;;;;;;6094805;23;20022;-39
2020/12/19 01:33:35;;;;;;;4.03;1.52;;;;;;;;;;6069474;23;20515;-37
2020/12/19 01:36:02;;;;;;;2.60;1.70;;;;;;;;;;6094784;23;20007;-39
2020/12/19 01:38:29;;;;;;;4.75;1.40;;;;;;;;;;6094552;23;20007;-39
2020/12/19 01:40:57;;;;;;;3.30;1.42;;;;;;;;;;6094512;23;20423;-38
2020/12/19 01:43:24;;;;;;;2.83;1.50;;;;;;;;;;6094653;23;20003;-39
2020/12/19 01:45:51;;;;;;;3.83;1.40;;;;;;;;;;6094933;23;20014;-40
2020/12/19 01:48:21;;;;;;;6.60;2.10;;;;;;;;;;6094063;23;20392;-38
2020/12/19 01:50:49;;;;;;;2.78;1.33;;;;;;;;;;6063336;23;20026;-36
2020/12/19 01:53:17;;;;;;;3.95;1.13;;;;;;;;;;6092937;23;20002;-36
2020/12/19 01:55:44;;;;;;;3.10;1.10;;;;;;;;;;6067400;23;20006;-36
2020/12/19 01:58:14;;;;;;;12.10;1.40;;;;;;;;;;6094604;23;20053;-39
2020/12/19 02:00:42;;;;;;;10.57;1.60;;;;;;;;;;6090634;23;20030;-40
2020/12/19 02:03:10;;;;;;;5.82;1.40;;;;;;;;;;6094583;23;20029;-37
2020/12/19 02:05:39;;;;;;;6.63;1.23;;;;;;;;;;6093423;23;20007;-38
2020/12/19 02:08:08;;;;;;;7.10;1.10;;;;;;;;;;6065481;23;20094;-37
2020/12/19 02:10:36;;;;;;;11.57;1.05;;;;;;;;;;6092393;23;20339;-38
2020/12/19 02:13:04;;;;;;;2.78;0.70;;;;;;;;;;6094214;23;20077;-38
2020/12/19 02:15:43;;;;;;;2.60;1.05;;;;;;;;;;6094451;23;20006;-38
2020/12/19 02:18:12;;;;;;;3.05;1.00;;;;;;;;;;6094622;23;20454;-37
2020/12/19 02:20:40;;;;;;;3.20;0.68;;;;;;;;;;6093495;23;20090;-39
2020/12/19 02:23:08;;;;;;;2.13;0.85;;;;;;;;;;6094306;23;20327;-39
2020/12/19 02:25:37;;;;;;;2.35;0.70;;;;;;;;;;6094233;23;20021;-39
2020/12/19 02:28:09;;;;;;;4.22;1.10;;;;;;;;;;6094379;23;20003;-40
2020/12/19 02:30:37;;;;;;;2.35;0.90;;;;;;;;;;6094338;23;20036;-38
2020/12/19 02:33:05;;;;;;;6.80;0.88;;;;;;;;;;6094842;23;20005;-46
2020/12/19 02:35:33;;;;;;;1.40;0.60;;;;;;;;;;6094310;23;20014;-41
2020/12/19 02:38:03;;;;;;;1.40;0.60;;;;;;;;;;6094057;23;20013;-36
2020/12/19 02:40:31;;;;;;;3.22;0.50;;;;;;;;;;6091989;23;20006;-36
2020/12/19 02:42:58;;;;;;;1.65;0.93;;;;;;;;;;6094720;23;20331;-42
2020/12/19 02:45:26;;;;;;;2.75;0.55;;;;;;;;;;6093932;23;20010;-38
2020/12/19 02:47:53;;;;;;;1.00;0.40;;;;;;;;;;6094740;23;20002;-39
2020/12/19 02:50:20;;;;;;;1.77;0.50;;;;;;;;;;6093227;23;20455;-38
2020/12/19 02:52:48;;;;;;;1.33;0.35;;;;;;;;;;6093620;23;20034;-38
2020/12/19 02:55:17;;;;;;;2.10;0.50;;;;;;;;;;6068440;23;20007;-37
2020/12/19 02:57:44;;;;;;;0.50;0.30;;;;;;;;;;6093977;23;20010;-39
2020/12/19 03:00:12;;;;;;;2.05;0.43;;;;;;;;;;6094834;23;20416;-39
2020/12/19 03:02:39;;;;;;;2.33;0.60;;;;;;;;;;6094142;23;20007;-42
2020/12/19 03:05:06;;;;;;;0.75;0.30;;;;;;;;;;6094494;23;20002;-42
2020/12/19 03:07:33;;;;;;;3.15;0.52;;;;;;;;;;6093548;23;20010;-39
2020/12/19 03:10:00;;;;;;;3.92;0.30;;;;;;;;;;6093947;23;20077;-43
2020/12/19 03:12:28;;;;;;;11.75;1.00;;;;;;;;;;6094361;23;20002;-38
2020/12/19 03:14:55;;;;;;;6.68;0.50;;;;;;;;;;6093979;23;20081;-37
2020/12/19 03:17:22;;;;;;;3.45;0.52;;;;;;;;;;6094320;23;20061;-38
2020/12/19 03:19:50;;;;;;;4.35;0.38;;;;;;;;;;6093668;23;20007;-40
2020/12/19 03:22:17;;;;;;;7.10;0.80;;;;;;;;;;6066639;23;20012;-37
2020/12/19 03:24:44;;;;;;;3.20;0.43;;;;;;;;;;6093085;23;20017;-38
2020/12/19 03:27:11;;;;;;;1.83;0.57;;;;;;;;;;6092539;23;20006;-38
2020/12/19 03:29:38;;;;;;;2.42;0.40;;;;;;;;;;6093727;23;20021;-37
2020/12/19 03:32:05;;;;;;;2.35;0.50;;;;;;;;;;6093593;23;20108;-39
2020/12/19 03:34:33;;;;;;;1.38;0.60;;;;;;;;;;6093930;23;20006;-38
2020/12/19 03:37:00;;;;;;;0.52;0.30;;;;;;;;;;6093715;23;20033;-37
2020/12/19 03:39:27;;;;;;;2.00;0.25;;;;;;;;;;6094469;23;20486;-37
2020/12/19 03:41:55;;;;;;;1.55;0.38;;;;;;;;;;6094893;23;20438;-36
2020/12/19 03:44:22;;;;;;;0.90;0.20;;;;;;;;;;6094562;23;20089;-37
2020/12/19 03:46:49;;;;;;;0.38;0.10;;;;;;;;;;6069773;23;20010;-37
2020/12/19 03:49:16;;;;;;;0.47;0.20;;;;;;;;;;6046604;23;20502;-37
2020/12/19 03:51:43;;;;;;;0.15;0.10;;;;;;;;;;6095948;23;20010;-40
2020/12/19 03:54:10;;;;;;;0.43;0.20;;;;;;;;;;6097119;23;20081;-42
2020/12/19 03:56:37;;;;;;;2.78;0.43;;;;;;;;;;6097224;23;20091;-37
2020/12/19 03:59:04;;;;;;;7.00;0.40;;;;;;;;;;6097307;23;20002;-39
2020/12/19 04:01:31;;;;;;;0.82;0.25;;;;;;;;;;6097591;23;20006;-39
2020/12/19 04:03:58;;;;;;;17.95;0.68;;;;;;;;;;6097817;23;20002;-39
2020/12/19 04:06:25;;;;;;;3.90;0.68;;;;;;;;;;6097555;23;20331;-39
2020/12/19 04:08:52;;;;;;;4.93;0.50;;;;;;;;;;6097328;23;20327;-39
2020/12/19 04:11:19;;;;;;;1.55;0.30;;;;;;;;;;6097195;23;20014;-38
2020/12/19 04:13:46;;;;;;;4.78;0.32;;;;;;;;;;6097888;23;20320;-42
2020/12/19 04:16:13;;;;;;;1.35;0.30;;;;;;;;;;6097175;23;20017;-39
2020/12/19 04:18:39;;;;;;;5.88;0.40;;;;;;;;;;6097319;23;20470;-39
2020/12/19 04:21:10;;;;;;;1.67;0.17;;;;;;;;;;6097437;23;20006;-39
2020/12/19 04:23:37;;;;;;;2.97;0.30;;;;;;;;;;6097120;23;20005;-39
2020/12/19 04:26:04;;;;;;;0.85;0.38;;;;;;;;;;6096783;23;20455;-41
2020/12/19 04:28:31;;;;;;;0.20;0.20;;;;;;;;;;6097044;23;20006;-39
2020/12/19 04:30:58;;;;;;;1.52;0.60;;;;;;;;;;6097445;23;20097;-38
2020/12/19 04:33:25;;;;;;;1.30;0.63;;;;;;;;;;6097385;23;19998;-41
2020/12/19 04:35:52;;;;;;;1.13;0.30;;;;;;;;;;6097093;23;20030;-38
2020/12/19 04:38:19;;;;;;;0.57;0.28;;;;;;;;;;6097222;23;20034;-41
2020/12/19 04:40:46;;;;;;;0.85;0.20;;;;;;;;;;6097269;23;20013;-39
2020/12/19 04:43:17;;;;;;;1.00;0.30;;;;;;;;;;6097812;23;19998;-40
2020/12/19 04:45:45;;;;;;;2.72;0.20;;;;;;;;;;6097262;23;20030;-39
2020/12/19 04:48:12;;;;;;;0.77;0.22;;;;;;;;;;6097368;23;20025;-38
2020/12/19 04:50:40;;;;;;;0.22;0.22;;;;;;;;;;6097478;23;20078;-39
2020/12/19 04:53:17;;;;;;;0.40;0.30;;;;;;;;;;6097458;23;20305;-39
2020/12/19 04:55:44;;;;;;;0.65;0.20;;;;;;;;;;6097398;23;20006;-42
2020/12/19 04:58:12;;;;;;;1.38;0.20;;;;;;;;;;6097203;23;20312;-39
2020/12/19 05:00:40;;;;;;;0.55;0.20;;;;;;;;;;6097376;23;20006;-39
2020/12/19 05:03:07;;;;;;;0.40;0.13;;;;;;;;;;6097099;23;20074;-39
2020/12/19 05:05:35;;;;;;;0.82;0.20;;;;;;;;;;6097193;23;20007;-39
2020/12/19 05:08:02;;;;;;;2.67;0.40;;;;;;;;;;6097472;23;19999;-39
2020/12/19 05:10:29;;;;;;;0.43;0.10;;;;;;;;;;6071536;23;20371;-39
2020/12/19 05:12:56;;;;;;;0.20;0.10;;;;;;;;;;6071645;23;20074;-41
2020/12/19 05:15:23;;;;;;;1.33;0.30;;;;;;;;;;6071680;23;20006;-39
2020/12/19 05:17:54;;;;;;;0.20;0.20;;;;;;;;;;6096954;23;20008;-39
2020/12/19 05:20:22;;;;;;;0.63;0.20;;;;;;;;;;6096987;23;20007;-41
2020/12/19 05:22:49;;;;;;;0.38;0.10;;;;;;;;;;6096905;23;20419;-39
2020/12/19 05:25:17;;;;;;;0.40;0.20;;;;;;;;;;6097053;23;20048;-44
2020/12/19 05:27:45;;;;;;;1.92;0.20;;;;;;;;;;6096838;23;20006;-43
2020/12/19 05:30:13;;;;;;;2.58;0.30;;;;;;;;;;6096789;23;20022;-41
2020/12/19 05:32:50;;;;;;;0.32;0.20;;;;;;;;;;6097079;23;20372;-41
2020/12/19 05:35:26;;;;;;;0.55;0.30;;;;;;;;;;6096879;23;20054;-42
2020/12/19 05:37:59;;;;;;;0.75;0.20;;;;;;;;;;6097040;23;20006;-39
2020/12/19 05:40:28;;;;;;;1.73;0.70;;;;;;;;;;6096901;23;20038;-42
2020/12/19 05:42:55;;;;;;;2.00;0.40;;;;;;;;;;6096927;23;20077;-44
2020/12/19 05:45:23;;;;;;;0.60;0.20;;;;;;;;;;6071344;23;20691;-47
2020/12/19 05:47:50;;;;;;;2.10;0.20;;;;;;;;;;6096638;23;20429;-39
2020/12/19 05:50:18;;;;;;;0.65;0.20;;;;;;;;;;6096945;23;20011;-47
2020/12/19 05:52:45;;;;;;;0.47;0.10;;;;;;;;;;6097007;23;20002;-41
2020/12/19 05:55:13;;;;;;;0.10;0.10;;;;;;;;;;6096835;23;20013;-41
2020/12/19 05:57:40;;;;;;;0.93;0.28;;;;;;;;;;6096398;23;20381;-39
2020/12/19 06:00:08;;;;;;;1.42;0.38;;;;;;;;;;6096910;23;20010;-41
2020/12/19 06:02:36;;;;;;;0.70;0.20;;;;;;;;;;6096738;23;20005;-43
2020/12/19 06:05:06;;;;;;;1.63;0.30;;;;;;;;;;6096711;23;20030;-40
2020/12/19 06:07:37;;;;;;;0.68;0.20;;;;;;;;;;6096810;23;20065;-44
2020/12/19 06:10:06;;;;;;;1.05;0.20;;;;;;;;;;6096240;23;20021;-40
2020/12/19 06:12:51;;;;;;;2.25;0.20;;;;;;;;;;6096732;23;20070;-41
2020/12/19 06:15:38;;;;;;;1.10;0.30;;;;;;;;;;6096579;23;20069;-44
2020/12/19 06:18:11;;;;;;;1.75;0.20;;;;;;;;;;6061096;23;20006;-43
2020/12/19 06:20:38;;;;;;;0.95;0.30;;;;;;;;;;6096508;23;20062;-45
2020/12/19 06:23:14;;;;;;;0.95;0.30;;;;;;;;;;6096549;23;20038;-39
2020/12/19 06:25:42;;;;;;;1.45;0.35;;;;;;;;;;6096344;23;20048;-46
2020/12/19 06:28:10;;;;;;;1.60;0.40;;;;;;;;;;6096542;23;20029;-41
2020/12/19 06:30:37;;;;;;;0.57;0.22;;;;;;;;;;6096402;23;20014;-42
2020/12/19 06:33:12;;;;;;;1.27;0.50;;;;;;;;;;6071088;23;20029;-44
2020/12/19 06:35:39;;;;;;;2.53;0.55;;;;;;;;;;6096388;23;20061;-44
2020/12/19 06:38:06;;;;;;;1.55;0.30;;;;;;;;;;6096438;23;20074;-41
2020/12/19 06:40:40;;;;;;;0.60;0.20;;;;;;;;;;6096657;23;20339;-43
2020/12/19 06:43:11;;;;;;;0.20;0.20;;;;;;;;;;6096211;23;20007;-42
2020/12/19 06:45:38;;;;;;;0.52;0.20;;;;;;;;;;6096337;23;20318;-39
2020/12/19 06:48:05;;;;;;;0.80;0.30;;;;;;;;;;6096178;23;20006;-42
2020/12/19 06:50:50;;;;;;;0.88;0.20;;;;;;;;;;6096257;23;20449;-41
2020/12/19 06:53:17;;;;;;;1.75;0.35;;;;;;;;;;6096441;23;20049;-38
2020/12/19 06:55:44;;;;;;;1.83;0.30;;;;;;;;;;6096210;23;20007;-38
2020/12/19 06:58:11;;;;;;;0.50;0.30;;;;;;;;;;6096233;23;20030;-39
2020/12/19 07:00:38;;;;;;;0.57;0.30;;;;;;;;;;6070982;23;20013;-40
2020/12/19 07:03:05;;;;;;;0.95;0.22;;;;;;;;;;6096163;23;20053;-40
2020/12/19 07:05:33;;;;;;;0.70;0.15;;;;;;;;;;6096562;23;20002;-40
2020/12/19 07:08:20;;;;;;;0.30;0.20;;;;;;;;;;6096364;23;20379;-40
2020/12/19 07:10:48;;;;;;;2.90;0.45;;;;;;;;;;6096199;23;20022;-39
2020/12/19 07:13:15;;;;;;;1.00;0.30;;;;;;;;;;6095995;23;20004;-39
2020/12/19 07:15:46;;;;;;;1.65;0.30;;;;;;;;;;6096223;23;20006;-40
2020/12/19 07:18:25;;;;;;;0.77;0.32;;;;;;;;;;6096408;23;20002;-39
2020/12/19 07:20:59;;;;;;;1.80;0.40;;;;;;;;;;6096479;23;20002;-38
2020/12/19 07:23:26;;;;;;;3.67;0.73;;;;;;;;;;6097924;23;20010;-39
2020/12/19 07:25:53;;;;;;;2.58;0.63;;;;;;;;;;6097909;23;20097;-39
2020/12/19 07:28:20;;;;;;;1.10;0.30;;;;;;;;;;6072660;23;20010;-42
2020/12/19 07:30:47;;;;;;;0.80;0.40;;;;;;;;;;6098086;23;20010;-39
2020/12/19 07:33:14;;;;;;;0.95;0.43;;;;;;;;;;6098163;23;20073;-40
2020/12/19 07:35:41;;;;;;;0.75;0.20;;;;;;;;;;6098349;23;20006;-38
2020/12/19 07:38:08;;;;;;;3.92;0.63;;;;;;;;;;6098164;23;20014;-43
2020/12/19 07:40:36;;;;;;;1.92;0.60;;;;;;;;;;6097985;23;20013;-38
2020/12/19 07:43:03;;;;;;;3.97;0.32;;;;;;;;;;6098247;23;20082;-39
2020/12/19 07:45:31;;;;;;;1.13;0.40;;;;;;;;;;6098182;23;20002;-38
2020/12/19 07:47:58;;;;;;;3.05;0.47;;;;;;;;;;6097941;23;20077;-45
2020/12/19 07:50:29;;;;;;;1.73;0.52;;;;;;;;;;6097986;23;20054;-42
2020/12/19 07:53:00;;;;;;;1.80;0.70;;;;;;;;;;6098201;23;19998;-42
2020/12/19 07:55:27;;;;;;;2.38;0.60;;;;;;;;;;6097847;23;20010;-42
2020/12/19 07:57:55;;;;;;;4.15;0.30;;;;;;;;;;6097860;23;20577;-39
2020/12/19 08:00:22;;;;;;;2.10;0.50;;;;;;;;;;6097953;23;20005;-43
2020/12/19 08:02:49;;;;;;;0.88;0.30;;;;;;;;;;6097954;23;20002;-41
2020/12/19 08:05:16;;;;;;;2.67;0.70;;;;;;;;;;6097856;23;20423;-39
2020/12/19 08:07:43;;;;;;;1.75;0.50;;;;;;;;;;6097714;23;20343;-46
2020/12/19 08:10:11;;;;;;;1.92;0.30;;;;;;;;;;6097706;23;20014;-44
2020/12/19 08:12:39;;;;;;;2.70;0.50;;;;;;;;;;6072104;23;20446;-43
2020/12/19 08:15:23;;;;;;;0.70;0.40;;;;;;;;;;6097891;23;20382;-43
2020/12/19 08:17:50;;;;;;;1.52;0.60;;;;;;;;;;6097794;23;20017;-42
2020/12/19 08:20:19;;;;;;;1.25;0.32;;;;;;;;;;6097680;23;19998;-43
2020/12/19 08:22:47;;;;;;;2.00;0.38;;;;;;;;;;6097533;23;20012;-45
2020/12/19 08:25:14;;;;;;;4.75;0.73;;;;;;;;;;6097476;23;20017;-39
2020/12/19 08:27:46;;;;;;;0.80;0.40;;;;;;;;;;6097905;23;20074;-39
2020/12/19 08:30:16;;;;;;;1.70;0.40;;;;;;;;;;6097602;23;20454;-43
2020/12/19 08:32:44;;;;;;;0.95;0.30;;;;;;;;;;6097290;23;20007;-40
2020/12/19 08:35:17;;;;;;;2.10;0.50;;;;;;;;;;6097453;23;20002;-43
2020/12/19 08:37:44;;;;;;;2.00;0.32;;;;;;;;;;6097524;23;20009;-43
2020/12/19 08:40:13;;;;;;;2.65;0.28;;;;;;;;;;6097592;23;20002;-43
2020/12/19 08:42:40;;;;;;;1.30;0.25;;;;;;;;;;6097185;23;20066;-41
2020/12/19 08:45:15;;;;;;;3.28;0.30;;;;;;;;;;6097463;23;20030;-41
2020/12/19 08:47:42;;;;;;;1.30;0.70;;;;;;;;;;6097344;23;20002;-42
2020/12/19 08:50:09;;;;;;;2.00;0.68;;;;;;;;;;6097161;23;20018;-38
2020/12/19 08:52:37;;;;;;;1.48;0.50;;;;;;;;;;6097515;23;20009;-45
2020/12/19 08:55:04;;;;;;;0.47;0.20;;;;;;;;;;6097414;23;20482;-40
2020/12/19 08:57:32;;;;;;;2.58;0.63;;;;;;;;;;6097120;23;20002;-41
2020/12/19 09:00:12;;;;;;;1.30;0.30;;;;;;;;;;6097522;23;20003;-42
2020/12/19 09:02:39;;;;;;;0.95;0.40;;;;;;;;;;6097369;23;20009;-43
2020/12/19 09:05:06;;;;;;;3.03;0.65;;;;;;;;;;6097224;23;19998;-40
2020/12/19 09:07:34;;;;;;;2.15;0.40;;;;;;;;;;6096966;23;20022;-41
2020/12/19 09:10:01;;;;;;;3.40;0.50;;;;;;;;;;6071686;23;20443;-41
2020/12/19 09:12:28;;;;;;;0.77;0.52;;;;;;;;;;6071600;23;20026;-42
2020/12/19 09:14:55;;;;;;;3.08;0.47;;;;;;;;;;6097071;23;20324;-41
2020/12/19 09:17:29;;;;;;;2.92;0.50;;;;;;;;;;6097011;23;20022;-40
2020/12/19 09:20:02;;;;;;;0.73;0.30;;;;;;;;;;6097307;23;20568;-41
2020/12/19 09:22:29;;;;;;;1.55;0.30;;;;;;;;;;6097005;23;20003;-39
2020/12/19 09:24:56;;;;;;;1.63;0.38;;;;;;;;;;6096539;23;20017;-39
2020/12/19 09:27:23;;;;;;;2.85;0.75;;;;;;;;;;6097304;23;20081;-40
2020/12/19 09:29:50;;;;;;;1.65;0.40;;;;;;;;;;6096664;23;20017;-42
2020/12/19 09:32:17;;;;;;;2.92;0.35;;;;;;;;;;6096968;23;20054;-41
2020/12/19 09:34:44;;;;;;;1.95;0.60;;;;;;;;;;6097105;23;20005;-41
2020/12/19 09:37:11;;;;;;;1.10;0.30;;;;;;;;;;6096990;23;20003;-39
2020/12/19 09:39:38;;;;;;;2.42;0.50;;;;;;;;;;6096886;23;20003;-40
2020/12/19 09:42:05;;;;;;;1.58;0.47;;;;;;;;;;6097017;23;20002;-42
2020/12/19 09:44:32;;;;;;;2.17;0.30;;;;;;;;;;6096288;23;20026;-43
2020/12/19 09:46:59;;;;;;;3.20;0.35;;;;;;;;;;6071738;23;20478;-41
2020/12/19 09:49:26;;;;;;;2.58;0.50;;;;;;;;;;6097021;23;20451;-40
2020/12/19 09:51:53;;;;;;;1.58;0.40;;;;;;;;;;6096702;23;20025;-41
2020/12/19 09:54:20;;;;;;;1.85;0.40;;;;;;;;;;6096851;23;20089;-43
2020/12/19 09:56:47;;;;;;;5.25;0.57;;;;;;;;;;6096908;23;20002;-39
2020/12/19 09:59:14;;;;;;;1.08;0.50;;;;;;;;;;6071110;23;20032;-39
2020/12/19 10:01:41;;;;;;;4.03;0.45;;;;;;;;;;6096709;23;20078;-40
2020/12/19 10:04:08;;;;;;;3.70;0.60;;;;;;;;;;6071584;23;20062;-42
2020/12/19 10:06:35;;;;;;;1.85;0.30;;;;;;;;;;6071420;23;20490;-38
2020/12/19 10:09:02;;;;;;;0.93;0.40;;;;;;;;;;6096573;23;20055;-41
2020/12/19 10:11:29;;;;;;;1.88;0.60;;;;;;;;;;6096783;23;20017;-40
2020/12/19 10:13:56;;;;;;;0.85;0.45;;;;;;;;;;6096599;23;20026;-39
2020/12/19 10:16:23;;;;;;;3.22;0.60;;;;;;;;;;6096670;23;20451;-40
2020/12/19 10:18:50;;;;;;;1.90;0.43;;;;;;;;;;6096775;23;20025;-39
2020/12/19 10:21:16;;;;;;;1.10;0.32;;;;;;;;;;6071383;23;20010;-39
2020/12/19 10:23:44;;;;;;;1.63;0.22;;;;;;;;;;6096391;23;20057;-37
2020/12/19 10:26:13;;;;;;;3.50;0.40;;;;;;;;;;6096637;23;20049;-42
2020/12/19 10:28:40;;;;;;;2.63;0.35;;;;;;;;;;6096745;23;20010;-41
2020/12/19 10:31:07;;;;;;;0.57;0.30;;;;;;;;;;6096625;23;20022;-45
2020/12/19 10:33:34;;;;;;;1.35;0.30;;;;;;;;;;6096402;23;20503;-39
2020/12/19 10:36:01;;;;;;;4.38;0.30;;;;;;;;;;6096783;23;20090;-41
2020/12/19 10:38:28;;;;;;;0.95;0.20;;;;;;;;;;6096608;23;20026;-38
2020/12/19 10:40:55;;;;;;;0.85;0.20;;;;;;;;;;6096277;23;20007;-42
2020/12/19 10:43:22;;;;;;;0.73;0.30;;;;;;;;;;6096381;23;20006;-42
2020/12/19 10:45:49;;;;;;;1.08;0.30;;;;;;;;;;6070847;23;20427;-40
2020/12/19 10:48:16;;;;;;;1.10;0.20;;;;;;;;;;6096378;23;19998;-40
2020/12/19 10:50:44;;;;;;;0.80;0.20;;;;;;;;;;6096696;23;20045;-40
2020/12/19 10:53:11;;;;;;;0.28;0.20;;;;;;;;;;6070641;23;20006;-42
2020/12/19 10:55:38;;;;;;;1.33;0.30;;;;;;;;;;6096354;23;20002;-39
2020/12/19 10:58:05;;;;;;;0.60;0.17;;;;;;;;;;6096394;23;20006;-44
2020/12/19 11:00:32;;;;;;;0.50;0.15;;;;;;;;;;6096205;23;20006;-41
2020/12/19 11:02:59;;;;;;;2.08;0.20;;;;;;;;;;6096073;23;20009;-41
2020/12/19 11:05:26;;;;;;;1.67;0.40;;;;;;;;;;6096486;23;20006;-39
2020/12/19 11:07:53;;;;;;;2.38;0.40;;;;;;;;;;6096027;23;20362;-42
2020/12/19 11:10:20;;;;;;;1.33;0.40;;;;;;;;;;6070749;23;20348;-44
2020/12/19 11:12:47;;;;;;;2.38;0.30;;;;;;;;;;6096367;23;19999;-38
2020/12/19 11:15:14;;;;;;;1.13;0.20;;;;;;;;;;6096248;23;20077;-40
2020/12/19 11:17:41;;;;;;;1.92;0.13;;;;;;;;;;6096062;23;20029;-38
2020/12/19 11:20:08;;;;;;;0.95;0.20;;;;;;;;;;6096366;23;19998;-38
2020/12/19 11:22:35;;;;;;;1.55;0.20;;;;;;;;;;6096221;23;20026;-37
2020/12/19 11:25:02;;;;;;;0.60;0.40;;;;;;;;;;6095894;23;20019;-39
2020/12/19 11:27:30;;;;;;;1.23;0.20;;;;;;;;;;6096293;23;20003;-40
2020/12/19 11:29:56;;;;;;;1.02;0.25;;;;;;;;;;6096125;23;20006;-38
2020/12/19 11:32:25;;;;;;;1.27;0.30;;;;;;;;;;6070492;23;20007;-40
2020/12/19 11:34:52;;;;;;;1.48;0.63;;;;;;;;;;6096144;23;20030;-39
2020/12/19 11:37:19;;;;;;;2.20;0.25;;;;;;;;;;6096267;23;20077;-40
2020/12/19 11:39:46;;;;;;;0.93;0.40;;;;;;;;;;6096259;23;20002;-39
2020/12/19 11:42:13;;;;;;;3.10;0.20;;;;;;;;;;6070898;23;20021;-39
2020/12/19 11:44:40;;;;;;;0.70;0.28;;;;;;;;;;6095904;23;20058;-39
2020/12/19 11:47:07;;;;;;;2.55;0.30;;;;;;;;;;6096211;23;20002;-38
2020/12/19 11:49:34;;;;;;;1.35;0.30;;;;;;;;;;6096179;23;19998;-39
2020/12/19 11:52:01;;;;;;;0.80;0.40;;;;;;;;;;6096148;23;20093;-41
2020/12/19 11:54:28;;;;;;;0.10;0.10;;;;;;;;;;6096071;23;19998;-39
2020/12/19 11:56:55;;;;;;;0.80;0.30;;;;;;;;;;6096041;23;20017;-39
2020/12/19 11:59:22;;;;;;;0.30;0.20;;;;;;;;;;6095986;23;20018;-43
2020/12/19 12:01:49;;;;;;;0.28;0.10;;;;;;;;;;6096015;23;20011;-41
2020/12/19 12:04:16;;;;;;;0.85;0.30;;;;;;;;;;6070554;23;20006;-39
2020/12/19 12:06:43;;;;;;;0.47;0.20;;;;;;;;;;6096184;23;20439;-38
2020/12/19 12:09:10;;;;;;;0.38;0.20;;;;;;;;;;6097671;23;19999;-41
2020/12/19 12:11:37;;;;;;;0.43;0.25;;;;;;;;;;6097783;23;20025;-40
2020/12/19 12:14:04;;;;;;;1.10;0.28;;;;;;;;;;6097759;23;20002;-40
2020/12/19 12:16:31;;;;;;;2.15;0.20;;;;;;;;;;6097924;23;20117;-39
2020/12/19 12:18:58;;;;;;;1.10;0.13;;;;;;;;;;6097936;23;19998;-42
2020/12/19 12:21:26;;;;;;;0.45;0.35;;;;;;;;;;6072339;23;20007;-41
2020/12/19 12:23:53;;;;;;;1.70;0.20;;;;;;;;;;6071945;23;20082;-46
2020/12/19 12:26:24;;;;;;;1.25;0.20;;;;;;;;;;6097441;23;20022;-42
2020/12/19 12:28:51;;;;;;;1.08;0.20;;;;;;;;;;6097829;23;20049;-41
2020/12/19 12:31:32;;;;;;;3.63;0.25;;;;;;;;;;6097337;23;20018;-39
2020/12/19 12:33:59;;;;;;;2.25;0.20;;;;;;;;;;6097531;23;20078;-46
2020/12/19 12:36:28;;;;;;;1.38;0.30;;;;;;;;;;6097582;23;20331;-40
2020/12/19 12:38:55;;;;;;;1.90;0.30;;;;;;;;;;6097615;23;20006;-43
2020/12/19 12:41:22;;;;;;;0.30;0.15;;;;;;;;;;6097319;23;20316;-41
2020/12/19 12:43:49;;;;;;;2.20;0.40;;;;;;;;;;6097457;23;20034;-41
2020/12/19 12:46:17;;;;;;;0.45;0.17;;;;;;;;;;6097674;23;20054;-40
2020/12/19 12:48:46;;;;;;;0.35;0.13;;;;;;;;;;6097406;23;20466;-39
2020/12/19 12:51:14;;;;;;;0.85;0.20;;;;;;;;;;6097249;23;20029;-41
2020/12/19 12:53:41;;;;;;;2.25;0.20;;;;;;;;;;6097355;23;20002;-39
2020/12/19 12:56:08;;;;;;;2.58;0.30;;;;;;;;;;6097337;23;20057;-40
2020/12/19 12:58:35;;;;;;;1.13;0.30;;;;;;;;;;6097210;23;20379;-40
2020/12/19 13:01:02;;;;;;;0.28;0.13;;;;;;;;;;6097543;23;20313;-40
2020/12/19 13:03:29;;;;;;;0.70;0.20;;;;;;;;;;6097252;23;20074;-41
2020/12/19 13:05:56;;;;;;;5.95;0.38;;;;;;;;;;6097047;23;20059;-40
2020/12/19 13:08:23;;;;;;;2.13;0.30;;;;;;;;;;6097462;23;20014;-40
2020/12/19 13:10:50;;;;;;;0.75;0.20;;;;;;;;;;6097118;23;20020;-38
2020/12/19 13:13:17;;;;;;;0.75;0.20;;;;;;;;;;6097107;23;20009;-40
2020/12/19 13:15:44;;;;;;;3.58;0.30;;;;;;;;;;6097097;23;20263;-39
2020/12/19 13:18:12;;;;;;;7.45;0.38;;;;;;;;;;6096909;23;20002;-38
2020/12/19 13:20:40;;;;;;;0.75;0.28;;;;;;;;;;6096828;23;20085;-38
2020/12/19 13:23:07;;;;;;;2.20;0.30;;;;;;;;;;6096975;23;19999;-38
2020/12/19 13:25:34;;;;;;;2.63;0.55;;;;;;;;;;6096690;23;20014;-41
2020/12/19 13:28:01;;;;;;;1.48;0.50;;;;;;;;;;6096745;23;20002;-39
2020/12/19 13:30:28;;;;;;;2.08;0.20;;;;;;;;;;6096993;23;20074;-42
2020/12/19 13:32:55;;;;;;;0.63;0.30;;;;;;;;;;6096308;23;20026;-39
2020/12/19 13:35:22;;;;;;;2.05;0.40;;;;;;;;;;6096338;23;20014;-42
2020/12/19 13:37:49;;;;;;;2.45;0.20;;;;;;;;;;6096716;23;20002;-38
2020/12/19 13:40:16;;;;;;;2.05;0.28;;;;;;;;;;6096143;23;20053;-38
2020/12/19 13:42:43;;;;;;;3.47;0.43;;;;;;;;;;6096554;23;20009;-37
2020/12/19 13:45:11;;;;;;;2.83;0.40;;;;;;;;;;6095643;23;20010;-42
2020/12/19 13:47:38;;;;;;;5.00;0.30;;;;;;;;;;6095783;23;20076;-38
2020/12/19 13:50:06;;;;;;;3.35;0.30;;;;;;;;;;6095621;23;20458;-39
2020/12/19 13:52:33;;;;;;;3.97;0.55;;;;;;;;;;6096153;23;20439;-37
2020/12/19 13:55:00;;;;;;;2.63;0.30;;;;;;;;;;6095918;23;20002;-38
2020/12/19 13:57:27;;;;;;;7.80;0.60;;;;;;;;;;6095972;23;20029;-39
2020/12/19 13:59:55;;;;;;;4.10;0.40;;;;;;;;;;6096438;23;19999;-38
2020/12/19 14:02:22;;;;;;;11.68;0.60;;;;;;;;;;6070462;23;20017;-39
2020/12/19 14:04:49;;;;;;;3.60;0.47;;;;;;;;;;6089823;23;20462;-43
2020/12/19 14:07:17;;;;;;;5.05;0.35;;;;;;;;;;6095055;23;20300;-36
2020/12/19 14:09:44;;;;;;;4.13;0.30;;;;;;;;;;6070077;23;20010;-39
2020/12/19 14:12:11;;;;;;;4.60;0.55;;;;;;;;;;6095680;23;20081;-38
2020/12/19 14:14:38;;;;;;;6.03;0.55;;;;;;;;;;6095836;23;20054;-38
2020/12/19 14:17:06;;;;;;;2.55;0.63;;;;;;;;;;6095576;23;20408;-40
2020/12/19 14:19:34;;;;;;;6.40;0.80;;;;;;;;;;6088957;23;20026;-37
2020/12/19 14:22:01;;;;;;;8.40;0.50;;;;;;;;;;6068053;23;20057;-39
2020/12/19 14:24:28;;;;;;;11.32;1.00;;;;;;;;;;6094304;23;20058;-39
2020/12/19 14:26:56;;;;;;;3.28;0.50;;;;;;;;;;6094907;23;20033;-38
2020/12/19 14:29:24;;;;;;;3.65;0.50;;;;;;;;;;6094779;23;20065;-38
2020/12/19 14:31:51;;;;;;;3.95;0.50;;;;;;;;;;6092733;23;20522;-46
2020/12/19 14:34:18;;;;;;;12.10;0.82;;;;;;;;;;6093511;23;20003;-43
2020/12/19 14:36:46;;;;;;;16.35;1.05;;;;;;;;;;6093311;23;20013;-40
2020/12/19 14:39:13;;;;;;;11.20;1.33;;;;;;;;;;6093361;23;20364;-40
2020/12/19 14:41:40;;;;;;;18.15;1.40;;;;;;;;;;6094643;23;19998;-38
2020/12/19 14:44:09;;;;;;;4.05;0.60;;;;;;;;;;6093444;23;20011;-38
2020/12/19 14:46:36;;;;;;;8.57;0.85;;;;;;;;;;6089114;23;20013;-37
2020/12/19 14:49:04;;;;;;;11.32;0.93;;;;;;;;;;6094523;23;20007;-39